Latest Weather Observations for Canterbury

IDN60901

Issued at 2:51 pm EDT Friday 6 March 2015 (issued every 10 minutes, with the page automatically refreshed every 10 minutes)

About weather observations | Map of Sydney area stations | Latest observations for Sydney area | Other Formats
Station Details ID: 066194 Name: CANTERBURY RACECOURSE AWS Lat: -33.91 Lon: 151.11 Height: 3.0 m
Data from the previous 72 hours. | See also: Recent months at Canterbury
Date/Time
EDT
Tmp

°C
App
Tmp
°C
Dew
Point
°C
Rel
Hum
%
Delta-T

°C
Wind Press
QNH
hPa
Press
MSL
hPa
Rain
since
9 am
mm
Dir
 
Spd
km/h
Gust
km/h
Spd
kts
Gust
kts
06/02:30pm 27.5 22.6 5.1 24 11.5 WSW 20 32 11 17 - - 0.4
06/02:00pm 26.8 21.2 3.3 22 11.6 WSW 22 37 12 20 - - 0.4
06/01:30pm 26.2 20.2 3.4 23 11.3 WSW 24 41 13 22 - - 0.4
06/01:00pm 25.4 20.0 1.5 21 11.3 W 19 32 10 17 - - 0.4
06/12:30pm 24.7 18.3 0.9 21 11.1 W 24 41 13 22 - - 0.4
06/12:00pm 23.9 17.8 0.3 21 10.8 W 22 32 12 17 - - 0.4
06/11:30am 23.1 17.2 1.4 24 10.1 W 22 33 12 18 - - 0.4
06/11:00am 22.3 16.3 1.3 25 9.7 W 22 33 12 18 - - 0.0
06/10:30am 21.0 14.7 1.3 27 9.0 W 24 35 13 19 - - 0.0
06/10:00am 20.0 14.6 1.4 29 8.4 W 19 28 10 15 - - 0.0
06/09:30am 19.1 14.6 4.1 37 7.1 NW 17 24 9 13 - - 0.0
06/09:00am 18.6 15.7 6.4 45 6.1 NW 11 20 6 11 - - 0.0
06/08:30am 17.2 14.7 8.4 56 4.5 NNW 11 20 6 11 - - 0.0
06/08:00am 16.0 13.4 9.2 64 3.5 NNW 13 20 7 11 - - 0.0
06/07:30am 14.9 13.2 9.7 71 2.7 NW 9 17 5 9 - - 0.0
06/07:00am 13.9 12.4 9.3 74 2.3 NW 7 13 4 7 - - 0.0
06/06:30am 13.8 13.0 9.5 75 2.2 WNW 4 7 2 4 - - 0.0
06/06:00am 14.2 12.4 9.4 73 2.5 NW 9 13 5 7 - - 0.0
06/05:30am 14.3 12.9 9.5 73 2.5 NW 7 11 4 6 - - 0.0
06/05:00am 13.9 12.6 9.9 77 2.1 NNW 7 13 4 7 - - 0.0
06/04:30am 12.2 12.1 9.4 83 1.4 CALM 0 6 0 3 - - 0.0
06/04:00am 12.3 12.1 9.0 80 1.7 CALM 0 0 0 0 - - 0.0
06/03:30am 12.8 12.5 8.5 75 2.1 CALM 0 0 0 0 - - 0.0
06/03:00am 14.1 12.8 9.3 73 2.4 WNW 6 7 3 4 - - 0.0
06/02:30am 14.5 13.3 9.5 72 2.6 NW 6 7 3 4 - - 0.0
06/02:00am 14.7 13.8 9.3 70 2.8 NW 4 6 2 3 - - 0.0
06/01:30am 15.4 14.6 9.5 68 3.0 NW 4 7 2 4 - - 0.0
06/01:00am 15.7 15.5 9.1 65 3.4 CALM 0 2 0 1 - - 0.0
06/12:30am 16.4 15.0 8.9 61 3.9 WNW 6 7 3 4 - - 0.0
06/12:00am 17.0 15.4 8.9 59 4.2 W 7 11 4 6 - - 0.0
 
Date/Time
EDT
Tmp

°C
App
Tmp
°C
Dew
Point
°C
Rel
Hum
%
Delta-T

°C
Wind Press
QNH
hPa
Press
MSL
hPa
Rain
since
9 am
mm
Dir
 
Spd
km/h
Gust
km/h
Spd
kts
Gust
kts
05/11:30pm 17.3 15.4 9.2 59 4.2 WSW 9 15 5 8 - - 0.0
05/11:00pm 17.0 15.6 8.9 59 4.2 WSW 6 7 3 4 - - 0.0
05/10:30pm 18.4 17.1 9.2 55 4.8 SSW 6 7 3 4 - - 0.0
05/10:00pm 18.9 17.6 9.9 56 4.8 SSE 7 13 4 7 - - 0.0
05/09:30pm 19.1 16.5 9.3 53 5.2 SSE 13 19 7 10 - - 0.0
05/09:00pm 19.0 16.6 10.0 56 4.8 SSE 13 22 7 12 - - 0.0
05/08:30pm 18.8 16.2 9.3 54 5.0 SSE 13 20 7 11 - - 0.0
05/08:00pm 19.0 15.3 9.5 54 5.0 SSE 19 30 10 16 - - 0.0
05/07:30pm 19.2 15.9 9.7 54 5.0 SE 17 30 9 16 - - 0.0
05/07:00pm 19.8 15.5 9.4 51 5.5 SSE 22 33 12 18 - - 0.0
05/06:30pm 20.3 15.4 8.3 46 6.2 SE 24 39 13 21 - - 0.0
05/06:00pm 20.5 15.4 7.8 44 6.6 SSE 24 41 13 22 - - 0.0
05/05:30pm 20.8 15.1 8.4 45 6.5 SE 28 46 15 25 - - 0.0
05/05:00pm 20.6 13.9 8.3 45 6.4 SSE 33 54 18 29 - - 0.0
05/04:37pm 20.8 14.4 9.4 48 6.1 SE 33 52 18 28 - - 0.0
05/04:30pm 20.8 14.1 9.7 49 5.9 SE 35 50 19 27 - - 0.0
05/04:20pm 21.2 15.7 10.4 50 5.9 SSE 30 48 16 26 - - 0.0
05/04:00pm 20.9 14.4 10.4 51 5.7 SSE 35 48 19 26 - - 0.0
05/03:31pm 21.4 15.8 11.4 53 5.5 SSE 32 50 17 27 - - 0.0
05/03:30pm 21.3 15.5 11.6 54 5.4 SSE 33 50 18 27 - - 0.0
05/03:02pm 21.3 16.1 12.7 58 4.9 SE 32 52 17 28 - - 0.0
05/03:00pm 22.0 17.5 13.9 60 4.7 SE 30 46 16 25 - - 0.0
05/02:39pm 21.9 17.4 13.8 60 4.7 SSE 30 48 16 26 - - 0.0
05/02:33pm 21.7 17.0 13.3 59 4.8 SSE 30 48 16 26 - - 0.0
05/02:30pm 21.7 16.9 14.1 62 4.4 SSE 32 46 17 25 - - 0.0
05/02:20pm 22.1 17.7 14.0 60 4.7 SSE 30 48 16 26 - - 0.0
05/02:00pm 22.3 18.1 14.7 62 4.5 SSE 30 46 16 25 - - 0.0
05/01:39pm 22.0 16.6 13.9 60 4.7 SSE 35 54 19 29 - - 0.0
05/01:30pm 22.0 16.8 13.4 58 5.0 SSE 33 50 18 27 - - 0.0
05/01:29pm 22.1 17.0 13.2 57 5.1 SSE 32 50 17 27 - - 0.0
05/01:00pm 25.6 20.1 5.8 28 10.2 SW 24 39 13 21 - - 0.0
05/12:30pm 25.5 21.1 6.7 30 9.8 WSW 19 30 10 16 - - 0.0
05/12:00pm 24.7 19.5 5.5 29 9.8 SW 22 35 12 19 - - 0.0
05/11:30am 24.4 20.4 6.6 32 9.2 SW 17 24 9 13 - - 0.0
05/11:00am 23.9 19.4 7.1 34 8.7 SW 20 30 11 16 - - 0.0
05/10:30am 24.4 20.5 7.1 33 9.0 SW 17 22 9 12 - - 0.0
05/10:00am 24.3 20.5 5.6 30 9.5 WSW 15 24 8 13 - - 0.0
05/09:30am 22.8 20.6 7.8 38 7.9 WSW 9 15 5 8 - - 0.0
05/09:00am 21.7 19.5 7.9 41 7.2 SW 9 13 5 7 - - 0.0
05/08:30am 20.5 20.0 12.0 58 4.7 WSW 6 11 3 6 - - 0.0
05/08:00am 18.0 19.9 17.7 98 0.2 W 4 7 2 4 - - 0.0
05/07:55am 17.9 19.8 17.7 99 0.1 WNW 4 7 2 4 - - 0.0
05/07:30am 17.6 20.1 17.3 98 0.2 CALM 0 0 0 0 - - 0.0
05/07:00am 15.6 16.8 15.0 96 0.3 SSW 2 7 1 4 - - 0.0
05/06:30am 16.0 17.7 15.2 95 0.5 CALM 0 0 0 0 - - 0.0
05/06:00am 17.3 18.9 16.8 97 0.3 NNW 4 7 2 4 - - 0.0
05/05:30am 17.5 19.9 16.9 96 0.4 CALM 0 0 0 0 - - 0.0
05/05:00am 17.7 20.1 17.1 96 0.4 CALM 0 0 0 0 - - 0.0
05/04:34am 17.7 20.1 17.1 96 0.4 CALM 0 0 0 0 - - 0.0
05/04:30am 17.9 20.4 17.3 96 0.4 CALM 0 0 0 0 - - 0.0
05/04:00am 18.3 20.9 17.5 95 0.5 CALM 0 0 0 0 - - 0.0
05/03:30am 18.5 21.2 17.7 95 0.5 CALM 0 0 0 0 - - 0.0
05/03:00am 18.5 21.2 17.7 95 0.5 CALM 0 0 0 0 - - 0.0
05/02:30am 18.7 21.4 17.7 94 0.6 CALM 0 0 0 0 - - 0.0
05/02:00am 18.8 21.4 17.6 93 0.7 CALM 0 0 0 0 - - 0.0
05/01:30am 18.7 21.2 17.2 91 0.9 CALM 0 0 0 0 - - 0.0
05/01:00am 19.2 21.9 17.7 91 0.9 CALM 0 0 0 0 - - 0.0
05/12:30am 19.7 22.6 18.2 91 0.9 CALM 0 0 0 0 - - 0.0
05/12:00am 20.3 23.3 18.4 89 1.2 CALM 0 0 0 0 - - 0.0
 
Date/Time
EDT
Tmp

°C
App
Tmp
°C
Dew
Point
°C
Rel
Hum
%
Delta-T

°C
Wind Press
QNH
hPa
Press
MSL
hPa
Rain
since
9 am
mm
Dir
 
Spd
km/h
Gust
km/h
Spd
kts
Gust
kts
04/11:30pm 20.9 23.6 18.7 87 1.4 WNW 2 6 1 3 - - 0.0
04/11:00pm 21.0 23.1 18.9 88 1.3 NW 6 7 3 4 - - 0.0
04/10:30pm 20.7 23.5 17.9 84 1.7 CALM 0 0 0 0 - - 0.0
04/10:00pm 21.4 24.4 18.4 83 1.9 CALM 0 6 0 3 - - 0.0
04/09:30pm 21.8 23.5 18.6 82 2.0 ENE 7 13 4 7 - - 0.0
04/09:00pm 21.6 23.9 17.8 79 2.4 ENE 2 9 1 5 - - 0.0
04/08:30pm 21.9 23.4 18.1 79 2.4 E 7 9 4 5 - - 0.0
04/08:00pm 22.4 23.6 18.2 77 2.6 ENE 9 13 5 7 - - 0.0
04/07:30pm 22.9 23.8 18.4 76 2.8 ENE 11 17 6 9 - - 0.0
04/07:00pm 23.7 24.4 17.9 70 3.6 NE 11 15 6 8 - - 0.0
04/06:30pm 24.7 25.2 18.4 68 4.0 E 13 22 7 12 - - 0.0
04/06:00pm 25.5 25.8 18.7 66 4.3 ENE 15 22 8 12 - - 0.0
04/05:30pm 25.8 25.5 18.2 63 4.8 ENE 17 20 9 11 - - 0.0
04/05:00pm 26.4 26.6 18.5 62 5.0 E 15 22 8 12 - - 0.0
04/04:30pm 26.5 26.3 18.6 62 5.0 ESE 17 22 9 12 - - 0.0
04/04:00pm 27.0 27.3 18.0 58 5.7 ENE 13 19 7 10 - - 0.0
04/03:30pm 27.4 28.0 18.7 59 5.6 ENE 13 22 7 12 - - 0.0
04/03:00pm 26.2 26.4 18.6 63 4.8 E 15 24 8 13 - - 0.0
04/02:30pm 26.7 28.0 20.1 67 4.3 ESE 13 19 7 10 - - 0.0
04/02:00pm 25.4 25.6 18.6 66 4.3 SE 15 20 8 11 - - 0.0
04/01:30pm 26.3 28.1 18.2 61 5.1 SE 6 15 3 8 - - 0.0
04/01:00pm 25.7 26.8 18.1 63 4.8 SE 9 13 5 7 - - 0.0
04/12:30pm 25.2 27.0 18.2 65 4.4 SSE 6 9 3 5 - - 0.0
04/12:00pm 24.0 24.8 18.2 70 3.6 E 11 13 6 7 - - 0.0
04/11:30am 23.3 24.1 18.2 73 3.2 ESE 11 17 6 9 - - 0.0
04/11:00am 23.3 24.5 18.2 73 3.2 SSE 9 13 5 7 - - 0.0
04/10:30am 23.2 23.9 17.9 72 3.3 SSE 11 15 6 8 - - 0.0
04/10:00am 23.5 25.1 17.9 71 3.5 SE 6 13 3 7 - - 0.0
04/09:30am 22.6 24.1 17.5 73 3.2 S 6 11 3 6 - - 0.0
04/09:00am 22.5 23.6 17.0 71 3.4 SSE 7 11 4 6 - - 0.0
04/08:30am 21.7 24.1 17.1 75 2.8 CALM 0 4 0 2 - - 0.0
04/08:00am 20.7 22.8 17.1 80 2.2 SSE 2 6 1 3 - - 0.0
04/07:30am 20.3 21.4 16.7 80 2.2 SSE 6 9 3 5 - - 0.0
04/07:00am 20.3 20.9 16.7 80 2.2 SSE 9 13 5 7 - - 0.0
04/06:30am 20.2 21.3 16.6 80 2.2 SSE 6 11 3 6 - - 0.0
04/06:00am 20.3 20.9 16.9 81 2.1 SSE 9 15 5 8 - - 0.0
04/05:30am 20.3 20.9 16.9 81 2.1 SSE 9 15 5 8 - - 0.0
04/05:00am 20.4 21.0 16.8 80 2.2 SSE 9 17 5 9 - - 0.0
04/04:30am 20.5 21.1 16.9 80 2.2 SSE 9 17 5 9 - - 0.0
04/04:00am 20.6 21.4 17.2 81 2.1 SE 9 13 5 7 - - 0.0
04/03:30am 20.7 21.5 17.3 81 2.1 SE 9 15 5 8 - - 0.0
04/03:00am 20.8 22.5 17.2 80 2.2 SE 4 11 2 6 - - 0.0
04/02:30am 20.8 21.5 17.0 79 2.3 SSE 9 15 5 8 - - 0.0
04/02:00am 21.1 22.3 17.3 79 2.3 SE 7 11 4 6 - - 0.0
04/01:30am 21.5 22.5 17.7 79 2.3 SSE 9 13 5 7 - - 0.0
04/01:00am 21.6 23.2 17.8 79 2.4 SSE 6 9 3 5 - - 0.0
04/12:30am 21.6 22.6 17.8 79 2.4 SE 9 11 5 6 - - 0.0
04/12:00am 21.4 23.7 17.6 79 2.3 SSE 2 7 1 4 - - 0.0
 
Date/Time
EDT
Tmp

°C
App
Tmp
°C
Dew
Point
°C
Rel
Hum
%
Delta-T

°C
Wind Press
QNH
hPa
Press
MSL
hPa
Rain
since
9 am
mm
Dir
 
Spd
km/h
Gust
km/h
Spd
kts
Gust
kts
03/11:30pm 21.3 23.8 17.3 78 2.5 CALM 0 0 0 0 - - 0.0
03/11:00pm 21.4 23.8 17.0 76 2.7 CALM 0 4 0 2 - - 0.0
03/10:30pm 21.6 23.9 16.8 74 2.9 CALM 0 0 0 0 - - 0.0
03/10:00pm 21.8 23.1 17.2 75 2.8 ENE 6 9 3 5 - - 0.0
03/09:30pm 22.0 23.2 16.9 73 3.1 ENE 6 9 3 5 - - 0.0
03/09:00pm 22.0 22.6 16.7 72 3.2 ENE 9 15 5 8 - - 0.0
03/08:30pm 22.2 22.8 16.7 71 3.4 ENE 9 13 5 7 - - 0.0
03/08:00pm 22.2 22.2 16.2 69 3.6 NE 11 19 6 10 - - 0.0
03/07:30pm 22.3 21.8 15.9 67 3.9 ENE 13 20 7 11 - - 0.0
03/07:00pm 22.3 21.4 15.9 67 3.9 ENE 15 22 8 12 - - 0.0
03/06:30pm 22.3 20.5 15.4 65 4.1 ENE 19 26 10 14 - - 0.0
03/06:00pm 22.2 20.6 15.1 64 4.2 ENE 17 26 9 14 - - 0.0
03/05:30pm 22.3 20.7 14.9 63 4.4 ENE 17 24 9 13 - - 0.0
03/05:00pm 22.6 21.1 15.2 63 4.4 ENE 17 22 9 12 - - 0.0
03/04:30pm 22.8 21.2 14.9 61 4.7 ENE 17 26 9 14 - - 0.0
03/04:00pm 24.2 22.3 15.1 56 5.4 ENE 19 30 10 16 - - 0.0
03/03:30pm 23.7 21.3 14.4 56 5.5 ENE 20 30 11 16 - - 0.0
03/03:00pm 25.5 24.2 15.8 55 5.9 ENE 17 26 9 14 - - 0.0

Latest Capital City Observations: Canberra | Sydney | Melbourne | Brisbane | Adelaide | Perth | Hobart | Darwin

Other Formats:

Comma delimited format used in spreadsheet applications
http://www.bom.gov.au/fwo/IDN60901/IDN60901.94766.axf

JavaScript Object Notation format (JSON) in row-major order
http://www.bom.gov.au/fwo/IDN60901/IDN60901.94766.json